Data for 08/08/2015

Time Sea-Level Adjusted Pressure Absolute Pressure Temperature Relative Humidity Dew Point   
(mb) (inHg) (mb) (inHg) (C) (F) (%) (C) (F)
00:05 1016 30 845 24.95 17.5 63.5 33 1.1 34
00:10 1016 30 845 24.95 17.6 63.6 33 1.2 34.2
00:15 1016 30 845 24.95 17.5 63.5 33 1.1 34
00:20 1016 30 845 24.95 17.4 63.4 33 1 33.9
00:25 1016 30 845 24.95 17.4 63.4 33 1.1 33.9
00:30 1016 30 845 24.95 17.4 63.2 33 1 33.8
00:35 1016 30 845 24.95 17.4 63.2 33 0.9 33.6
00:40 1016 30 845 24.95 17.4 63.2 33 1 33.8
00:45 1016 30 845 24.95 17.2 63 33 1 33.9
00:50 1016 30 845 24.95 17.2 62.9 34 1.1 34
00:55 1016 30 845 24.95 17.2 62.9 34 1.2 34.2
01:00 1016 30 845 24.95 17.1 62.7 34 1 33.9
01:05 1016 30 845 24.95 17.1 62.8 34 1.3 34.3
01:10 1016 30 845 24.95 17 62.6 34 1 33.8
01:15 1016 30 845 24.95 17 62.5 34 0.9 33.7
01:20 1016 30 845 24.95 17 62.6 34 1 33.9
01:25 1016 30 845 24.95 16.9 62.5 34 0.9 33.6
01:30 1016 30 845 24.95 16.9 62.4 34 0.9 33.7
01:35 1016 30 845 24.95 16.8 62.2 34 0.9 33.6
01:40 1016 30 845 24.95 16.7 62.1 34 0.8 33.5
01:45 1016 30 845 24.95 16.6 62 34 0.8 33.4
01:50 1016 30 845 24.95 16.6 61.8 34 0.8 33.4
01:55 1016 30 845 24.95 16.5 61.6 35 1 33.8
02:00 1016 30 845 24.95 16.4 61.4 35 1 33.7
02:05 1016 30 845 24.95 16.3 61.3 35 0.9 33.6
02:10 1016 30 845 24.95 16.3 61.4 34 0.7 33.3
02:15 1016 30 845 24.95 16.4 61.5 35 0.8 33.4
02:20 1016 30 845 24.95 16.3 61.4 35 0.8 33.4
02:25 1016 30 845 24.95 16.3 61.3 35 0.9 33.6
02:30 1016 30 845 24.95 16.3 61.3 35 0.9 33.6
02:35 1016 30 845 24.95 16.2 61.2 35 0.9 33.7
02:40 1016 30 845 24.95 16.2 61.2 35 0.8 33.4
02:45 1016 30 845 24.95 16.2 61.2 35 0.9 33.6
02:50 1016 30 846 24.98 16.2 61.1 35 0.8 33.5
02:55 1016 30 846 24.98 16.1 61 35 0.9 33.6
03:00 1016 30 846 24.98 16.1 60.9 36 1 33.8
03:05 1016 30 846 24.98 16 60.8 35 0.8 33.5
03:10 1016 30 846 24.98 16 60.8 36 0.9 33.7
03:15 1016 30 846 24.98 15.9 60.7 36 1 33.8
03:20 1016 30 846 24.98 15.9 60.6 36 1.1 34
03:25 1016 30 846 24.98 15.8 60.5 36 0.9 33.7
03:30 1016 30 846 24.98 15.8 60.5 37 1.1 34
03:35 1016 30 846 24.98 15.8 60.4 36 1 33.8
03:40 1016 30 846 24.98 15.8 60.4 37 1.1 33.9
03:45 1016 30 846 24.98 15.7 60.3 37 1.1 33.9
03:50 1016 30 846 24.98 15.7 60.3 36 1 33.7
03:55 1016 30 846 24.98 15.7 60.2 37 1.1 34
04:00 1016 30 846 24.98 15.6 60.2 37 1.2 34.1
04:05 1016 30 846 24.98 15.6 60.1 37 1 33.8
04:10 1016 30 846 24.98 15.7 60.2 37 1.1 34
04:15 1016 30 846 24.98 15.7 60.2 37 1.1 34
04:20 1016 30 845 24.95 15.6 60.1 37 1 33.8
04:25 1016 30 846 24.98 15.7 60.2 36 0.9 33.6
04:30 1016 30 846 24.98 15.8 60.4 36 0.7 33.3
04:35 1016 30 846 24.98 15.9 60.5 36 0.8 33.5
04:40 1016 30 846 24.98 15.8 60.4 36 1 33.8
04:45 1016 30 846 24.98 15.7 60.2 36 0.9 33.7
04:50 1016 30 846 24.98 15.6 60.1 37 1.1 33.9
04:55 1016 30 846 24.98 15.5 59.9 38 1.2 34.1
05:00 1016 30 846 24.98 15.5 59.8 37 1.1 34
05:05 1017 30.03 846 24.98 15.4 59.7 38 1.1 34
05:10 1017 30.03 846 24.98 15.4 59.8 37 1 33.8
05:15 1016 30 846 24.98 15.4 59.7 37 1 33.9
05:20 1016 30 846 24.98 15.4 59.7 37 1 33.8
05:25 1016 30 846 24.98 15.4 59.7 37 1 33.7
05:30 1016 30 846 24.98 15.4 59.7 38 1.1 34
05:35 1016 30 846 24.98 15.4 59.6 37 1 33.8
05:40 1016 30 846 24.98 15.4 59.7 37 0.9 33.6
05:45 1016 30 846 24.98 15.4 59.7 37 1.1 33.9
05:50 1016 30 846 24.98 15.4 59.6 38 1 33.9
05:55 1016 30 846 24.98 15.4 59.7 38 1.1 34
06:00 1017 30.03 846 24.98 15.3 59.6 38 1.2 34.2
06:05 1017 30.03 846 24.98 15.3 59.5 38 1.1 34.1
06:10 1017 30.03 846 24.98 15.3 59.5 38 1.1 33.9
06:15 1017 30.03 846 24.98 15.3 59.5 38 1.1 34.1
06:20 1017 30.03 846 24.98 15.3 59.5 38 1.1 34
06:25 1017 30.03 846 24.98 15.3 59.5 39 1.4 34.5
06:30 1017 30.03 846 24.98 15.3 59.5 38 1.2 34.1
06:35 1017 30.03 846 24.98 15.3 59.5 38 1.2 34.2
06:40 1017 30.03 846 24.98 15.4 59.7 38 1.1 34
06:45 1017 30.03 847 25.01 15.3 59.6 38 1.2 34.1
06:50 1018 30.06 847 25.01 15.2 59.4 40 1.9 35.4
06:55 1018 30.06 847 25.01 15 58.9 41 2 35.7
07:00 1018 30.06 847 25.01 14.7 58.5 44 2.8 37
07:05 1018 30.06 847 25.01 14.5 58 45 2.8 37.1
07:10 1018 30.06 847 25.01 14.2 57.6 47 3.2 37.8
07:15 1018 30.06 847 25.01 14 57.2 48 3.3 38
07:20 1018 30.06 847 25.01 13.9 57.1 49 3.4 38.2
07:25 1018 30.06 847 25.01 13.8 56.9 52 4.1 39.4
07:30 1018 30.06 847 25.01 13.6 56.4 54 4.6 40.3
07:35 1018 30.06 847 25.01 13.3 55.9 58 5.2 41.4
07:40 1018 30.06 847 25.01 13 55.4 60 5.4 41.8
07:45 1018 30.06 847 25.01 12.7 54.8 64 6 42.8
07:50 1018 30.06 847 25.01 12.3 54.2 68 6.6 43.9
07:55 1018 30.06 847 25.01 12 53.6 70 6.6 43.9
08:00 1018 30.06 847 25.01 11.8 53.3 73 7.1 44.7
08:05 1018 30.06 847 25.01 11.8 53.2 72 6.8 44.3
08:10 1018 30.06 848 25.04 11.8 53.2 70 6.6 43.9
08:15 1018 30.06 848 25.04 12 53.6 72 7.1 44.7
08:20 1019 30.09 848 25.04 12.2 53.9 71 7.1 44.8
08:25 1019 30.09 848 25.04 12.3 54.1 66 6.2 43.1
08:30 1019 30.09 848 25.04 12.4 54.3 69 6.9 44.5
08:35 1019 30.09 848 25.04 12.2 53.9 72 7.3 45.1
08:40 1019 30.09 848 25.04 11.9 53.3 75 7.7 45.8
08:45 1019 30.09 848 25.04 11.6 52.8 78 7.8 46.1
08:50 1019 30.09 848 25.04 11.4 52.5 79 7.9 46.3
08:55 1019 30.09 848 25.04 11.2 52.2 82 8.3 46.9
09:00 1019 30.09 848 25.04 11.1 52 85 8.7 47.6
09:05 1019 30.09 848 25.04 11 51.7 86 8.7 47.7
09:10 1019 30.09 848 25.04 10.9 51.7 84 8.4 47
09:15 1019 30.09 848 25.04 10.8 51.5 85 8.4 47.1
09:20 1019 30.09 848 25.04 10.7 51.2 84 8.2 46.7
09:25 1019 30.09 848 25.04 10.6 51 86 8.3 47
09:30 1019 30.09 848 25.04 10.6 51 87 8.4 47.2
09:35 1019 30.09 848 25.04 10.7 51.2 86 8.4 47.1
09:40 1019 30.09 848 25.04 10.8 51.4 87 8.7 47.6
09:45 1019 30.09 848 25.04 10.7 51.3 86 8.6 47.4
09:50 1019 30.09 848 25.04 10.8 51.4 86 8.6 47.6
09:55 1019 30.09 848 25.04 10.9 51.6 86 8.7 47.6
10:00 1019 30.09 848 25.04 11 51.7 86 8.7 47.7
10:05 1019 30.09 848 25.04 11 51.8 86 8.8 47.8
10:10 1019 30.09 848 25.04 11.2 52.1 86 8.9 48.1
10:15 1019 30.09 848 25.04 11.3 52.3 85 8.8 47.8
10:20 1019 30.09 848 25.04 11.4 52.5 84 8.7 47.7
10:25 1019 30.09 848 25.04 11.5 52.6 83 8.7 47.7
10:30 1019 30.09 848 25.04 11.7 53 83 9 48.1
10:35 1019 30.09 848 25.04 12 53.5 82 9 48.2
10:40 1019 30.09 848 25.04 12.1 53.7 81 9 48.1
10:45 1019 30.09 848 25.04 12.3 54.1 81 9.1 48.4
10:50 1019 30.09 848 25.04 12.4 54.4 78 8.8 47.8
10:55 1019 30.09 848 25.04 12.8 55 80 9.5 49.1
11:00 1019 30.09 848 25.04 13.2 55.8 77 9.4 48.9
11:05 1019 30.09 848 25.04 13.6 56.5 73 8.9 48
11:10 1019 30.09 848 25.04 13.7 56.7 75 9.5 49.1
11:15 1019 30.09 848 25.04 13.7 56.6 76 9.7 49.4
11:20 1019 30.09 848 25.04 13.8 56.8 76 9.6 49.3
11:25 1019 30.09 848 25.04 13.6 56.5 77 9.7 49.4
11:30 1019 30.09 848 25.04 13.7 56.6 77 9.8 49.7
11:35 1019 30.09 848 25.04 13.9 57 74 9.4 49
11:40 1019 30.09 848 25.04 14.1 57.3 71 9 48.2
11:45 1019 30.09 848 25.04 14.3 57.7 72 9.3 48.7
11:50 1019 30.09 848 25.04 14.4 57.8 71 9.1 48.5
11:55 1019 30.09 848 25.04 14.4 58 69 9 48.1
12:00 1019 30.09 848 25.04 14.8 58.6 68 9 48.1
12:05 1019 30.09 848 25.04 15.1 59.2 65 8.7 47.7
12:10 1019 30.09 848 25.04 15.4 59.7 59 7.5 45.6
12:15 1019 30.09 848 25.04 15.2 59.3 62 8.1 46.6
12:20 1019 30.09 848 25.04 15.5 59.9 58 7.3 45.2
12:25 1019 30.09 848 25.04 15.6 60.2 60 8.1 46.5
12:30 1019 30.09 848 25.04 16.2 61.2 58 8.1 46.5
12:35 1019 30.09 848 25.04 15.8 60.5 60 8.3 46.9
12:40 1019 30.09 848 25.04 16.1 61 57 7.6 45.7
12:45 1019 30.09 848 25.04 15.9 60.7 60 8.2 46.8
12:50 1019 30.09 848 25.04 16.1 60.9 60 8.4 47.1
12:55 1019 30.09 848 25.04 16.1 60.9 61 8.5 47.3
13:00 1019 30.09 848 25.04 16.2 61.2 58 8.1 46.6
13:05 1019 30.09 848 25.04 16.7 62 59 8.8 47.8
13:10 1019 30.09 848 25.04 16.4 61.5 62 9.1 48.3
13:15 1019 30.09 848 25.04 16.5 61.7 59 8.5 47.3
13:20 1019 30.09 848 25.04 16.4 61.5 62 9.2 48.6
13:25 1019 30.09 848 25.04 16.4 61.4 61 9 48.1
13:30 1019 30.09 848 25.04 16.5 61.8 60 8.9 48
13:35 1019 30.09 848 25.04 16.3 61.4 61 8.9 48.1
13:40 1019 30.09 848 25.04 16.1 61 62 9 48.1
13:45 1019 30.09 848 25.04 16 60.9 63 9.1 48.4
13:50 1019 30.09 848 25.04 16 60.7 60 8.3 47
13:55 1019 30.09 848 25.04 16 60.8 61 8.5 47.3
14:00 1019 30.09 848 25.04 15.9 60.7 63 9 48.2
14:05 1019 30.09 848 25.04 15.9 60.5 64 9 48.3
14:10 1019 30.09 848 25.04 15.8 60.5 64 9.2 48.5
14:15 1019 30.09 848 25.04 15.5 60 65 9 48.2
14:20 1019 30.09 848 25.04 15.2 59.4 65 8.8 47.9
14:25 1019 30.09 848 25.04 15.2 59.3 67 9.2 48.5
14:30 1019 30.09 848 25.04 15.1 59.2 67 9.1 48.5
14:35 1019 30.09 848 25.04 15.1 59.1 69 9.5 49.2
14:40 1019 30.09 848 25.04 14.9 58.7 73 10 50
14:45 1019 30.09 848 25.04 14.5 58 72 9.5 49.2
14:50 1019 30.09 848 25.04 14.2 57.6 75 9.9 49.8
14:55 1019 30.09 849 25.07 14 57.3 77 10 50.1
15:00 1019 30.09 849 25.07 13.9 57 77 9.9 49.9
15:05 1019 30.09 849 25.07 13.8 56.8 79 10.3 50.5
15:10 1019 30.09 849 25.07 13.8 56.8 82 10.8 51.4
15:15 1019 30.09 849 25.07 13.8 56.8 81 10.6 51
15:20 1019 30.09 849 25.07 13.8 56.8 83 11 51.8
15:25 1020 30.12 849 25.07 13.7 56.7 81 10.5 50.9
15:30 1020 30.12 849 25.07 13.7 56.6 82 10.7 51.2
15:35 1020 30.12 849 25.07 13.5 56.4 82 10.6 51
15:40 1020 30.12 849 25.07 13.5 56.2 81 10.3 50.6
15:45 1020 30.12 849 25.07 13.5 56.3 82 10.6 51
15:50 1020 30.12 849 25.07 13.5 56.2 81 10.2 50.4
15:55 1020 30.12 849 25.07 13.4 56.2 81 10.3 50.6
16:00 1020 30.12 849 25.07 13.4 56.1 81 10.2 50.3
16:05 1020 30.12 849 25.07 13.4 56.1 81 10.3 50.5
16:10 1020 30.12 849 25.07 13.4 56.1 81 10.3 50.6
16:15 1020 30.12 849 25.07 13.4 56.1 81 10.3 50.6
16:20 1020 30.12 849 25.07 13.4 56.1 83 10.5 50.9
16:25 1020 30.12 849 25.07 13.3 56 82 10.3 50.6
16:30 1020 30.12 849 25.07 13.4 56.1 81 10.3 50.5
16:35 1020 30.12 849 25.07 13.4 56.1 84 10.8 51.5
16:40 1020 30.12 849 25.07 13.5 56.3 82 10.6 51
16:45 1020 30.12 849 25.07 13.6 56.5 84 10.9 51.7
16:50 1020 30.12 849 25.07 13.7 56.6 82 10.7 51.2
16:55 1020 30.12 849 25.07 13.8 56.8 84 11.1 52
17:00 1020 30.12 849 25.07 13.9 57.1 82 10.9 51.7
17:05 1020 30.12 849 25.07 14.1 57.4 82 11.1 52.1
17:10 1020 30.12 849 25.07 14.1 57.3 80 10.7 51.3
17:15 1020 30.12 849 25.07 13.9 57 83 11 51.8
17:20 1020 30.12 849 25.07 13.9 57 83 11.1 51.9
17:25 1020 30.12 849 25.07 13.8 56.9 82 10.9 51.7
17:30 1020 30.12 849 25.07 13.8 56.8 84 11.1 51.9
17:35 1020 30.12 849 25.07 13.8 56.8 83 11 51.9
17:40 1020 30.12 849 25.07 13.9 57.1 84 11.3 52.3
17:45 1020 30.12 849 25.07 14 57.1 82 10.9 51.7
17:50 1020 30.12 849 25.07 14 57.1 81 10.7 51.3
17:55 1020 30.12 849 25.07 14 57.1 82 11 51.7
18:00 1020 30.12 849 25.07 14.1 57.3 82 11 51.8
18:05 1020 30.12 849 25.07 14.2 57.5 81 10.9 51.6
18:10 1020 30.12 849 25.07 14 57.3 82 11 51.8
18:15 1020 30.12 849 25.07 14 57.1 82 11 51.8
18:20 1020 30.12 849 25.07 14 57.2 82 10.9 51.7
18:25 1020 30.12 849 25.07 13.9 57 82 10.9 51.6
18:30 1020 30.12 849 25.07 13.8 56.9 81 10.7 51.2
18:35 1020 30.12 849 25.07 13.8 56.8 81 10.7 51.2
18:40 1020 30.12 849 25.07 13.8 56.8 77 9.9 49.7
18:45 1020 30.12 849 25.07 13.8 56.8 78 10.1 50.2
18:50 1020 30.12 849 25.07 13.8 56.9 80 10.5 50.9
18:55 1020 30.12 849 25.07 13.8 56.9 77 9.9 49.8
19:00 1020 30.12 849 25.07 13.7 56.7 77 9.7 49.5
19:05 1020 30.12 849 25.07 13.7 56.7 77 9.8 49.7
19:10 1020 30.12 849 25.07 13.8 56.8 75 9.4 48.9
19:15 1020 30.12 849 25.07 13.7 56.6 75 9.4 48.9
19:20 1020 30.12 849 25.07 13.6 56.5 75 9.4 48.9
19:25 1020 30.12 849 25.07 13.6 56.4 75 9.2 48.6
19:30 1020 30.12 849 25.07 13.4 56.2 77 9.6 49.2
19:35 1020 30.12 849 25.07 13.3 55.9 78 9.7 49.4
19:40 1020 30.12 849 25.07 13.3 55.9 80 10 49.9
19:45 1020 30.12 849 25.07 13.2 55.8 79 9.8 49.6
19:50 1020 30.12 849 25.07 13.2 55.7 80 9.8 49.6
19:55 1020 30.12 849 25.07 13.1 55.6 80 9.8 49.6
20:00 1020 30.12 849 25.07 13 55.4 81 9.9 49.7
20:05 1020 30.12 849 25.07 13 55.3 82 9.9 49.8
20:10 1020 30.12 849 25.07 12.9 55.3 82 9.9 49.9
20:15 1020 30.12 849 25.07 12.9 55.1 83 10 50
20:20 1020 30.12 849 25.07 12.8 55 83 10 50.1
20:25 1020 30.12 849 25.07 12.6 54.7 85 10.2 50.3
20:30 1020 30.12 849 25.07 12.4 54.4 86 10.1 50.2
20:35 1020 30.12 849 25.07 12.4 54.3 86 10.1 50.2
20:40 1020 30.12 849 25.07 12.4 54.2 86 10.1 50.1
20:45 1020 30.12 849 25.07 12.2 54 86 10 50
20:50 1020 30.12 849 25.07 12.2 53.9 85 9.8 49.6
20:55 1020 30.12 849 25.07 12.1 53.7 85 9.7 49.4
21:00 1020 30.12 849 25.07 11.9 53.3 85 9.4 49
21:05 1020 30.12 849 25.07 11.7 53.1 85 9.4 48.8
21:10 1020 30.12 849 25.07 11.7 53.1 84 9.1 48.4
21:15 1020 30.12 849 25.07 11.9 53.4 83 9 48.3
21:20 1020 30.12 849 25.07 11.9 53.4 82 8.9 48
21:25 1020 30.12 849 25.07 11.7 53 83 8.9 48
21:30 1020 30.12 849 25.07 11.4 52.4 83 8.6 47.5
21:35 1020 30.12 849 25.07 11.2 52.1 81 8.1 46.5
21:40 1020 30.12 849 25.07 11.4 52.5 80 8.1 46.6
21:45 1020 30.12 849 25.07 11.5 52.8 79 8.1 46.6
21:50 1020 30.12 849 25.07 11.3 52.3 82 8.4 47.1
21:55 1020 30.12 849 25.07 10.8 51.5 83 8 46.5
22:00 1020 30.12 849 25.07 10.7 51.3 84 8.1 46.6
22:05 1020 30.12 849 25.07 10.6 51.1 85 8.2 46.7
22:10 1020 30.12 849 25.07 10.6 51.1 85 8.2 46.8
22:15 1020 30.12 850 25.1 10.7 51.3 86 8.4 47.2
22:20 1020 30.12 849 25.07 10.9 51.5 85 8.5 47.3
22:25 1020 30.12 849 25.07 11 51.8 84 8.4 47.2
22:30 1020 30.12 850 25.1 11 51.8 84 8.4 47.1
22:35 1020 30.12 850 25.1 10.9 51.6 84 8.3 47
22:40 1020 30.12 850 25.1 10.8 51.4 85 8.3 47
22:45 1020 30.12 850 25.1 10.7 51.2 85 8.2 46.8
22:50 1020 30.12 850 25.1 10.7 51.3 83 8 46.4
22:55 1020 30.12 850 25.1 10.9 51.5 82 7.9 46.2
23:00 1021 30.15 850 25.1 10.9 51.6 81 7.8 46
23:05 1021 30.15 850 25.1 10.9 51.6 81 7.7 45.9
23:10 1020 30.12 850 25.1 10.7 51.3 81 7.6 45.6
23:15 1021 30.15 850 25.1 10.6 51.1 81 7.5 45.6
23:20 1021 30.15 850 25.1 10.5 50.9 82 7.5 45.6
23:25 1021 30.15 850 25.1 10.4 50.7 82 7.5 45.5
23:30 1021 30.15 850 25.1 10.3 50.5 83 7.5 45.5
23:35 1021 30.15 850 25.1 10.3 50.6 82 7.4 45.2
23:40 1021 30.15 850 25.1 10.4 50.8 82 7.4 45.4
23:45 1021 30.15 850 25.1 10.4 50.8 82 7.5 45.5
23:50 1021 30.15 850 25.1 10.3 50.6 83 7.5 45.5
23:55 1021 30.15 850 25.1 10.3 50.5 82 7.4 45.4
24:00 1021 30.15 850 25.1 10.3 50.6 82 7.5 45.4